Tiempo atmosférico en la estación meteorológica de Elgoibar, Gipuzkoa (120 m.)



Fecha
DESCASC
Temp. máxima en grados centígrados (hora)
DESCASC
Temp. mínima en grados centígrados (hora)
DESCASC
Temp. media en grados centígrados
DESCASC
Racha de viento máxima en m/sg (hora)
DESCASC
Velocidad máxima media en intervalos de 10 minutos(hora)
DESCASC
Precipitaciones diarias en mm
DESCASC
Precipitaciones de 00:00 a 06:00 en mm
DESCASC
Precipitaciones de 06:00 a 12:00 en mm
DESCASC
Precipitaciones de 12:00 a 18:00 en mm
DESCASC
Precipitaciones de 18:00 a 24:00 en mm
DESCASC
23-06-2019 30.1 (13:10) 16.5 (02:30) 23.3 8.89 (15:30) 4.72 (15:30) 0 0 0 0 0
22-06-2019 23.8 (18:20) 8.6 (05:30) 16.2 6.39 (16:30) 3.33 (16:20) 0 0 0 0 0
21-06-2019 18.7 (13:00) 11.9 (23:50) 15.3 5.83 (14:40) 3.06 (14:40) 10.1 2.8 7.3 0 0
20-06-2019 17.8 (15:50) 14.6 (00:00) 16.2 5.28 (18:20) 3.33 (18:40) 1.6 0 0.6 0 1
19-06-2019 25.4 (12:00) 12.4 (00:00) 18.9 8.89 (11:30) 3.89 (13:00) 0 0 0 0 0
18-06-2019 34.2 (17:00) 14 (00:00) 24.1 9.17 (17:50) 4.17 (09:10) 0 0 0 0 0
17-06-2019 -- (--) -- (--) -- -- (--) -- (--) -- -- -- 0 0
16-06-2019 -- (--) -- (--) -- -- (--) -- (--) -- -- -- -- --
15-06-2019 -- (--) -- (--) -- -- (--) -- (--) -- -- -- -- --
14-06-2019 -- (--) -- (--) -- -- (--) -- (--) -- 0 -- -- --
13-06-2019 16.9 (13:20) 7.8 (00:00) 12.3 6.67 (14:40) 3.61 (14:40) 0 0 0 0 0
12-06-2019 19.1 (15:00) 8.4 (00:00) 13.8 6.39 (15:40) 3.61 (15:30) 0.1 0 0 0.1 0
11-06-2019 15.2 (15:20) 9.8 (00:00) 12.5 9.72 (17:30) 3.61 (15:20) 7 2 2.6 1.9 0.5
10-06-2019 17.2 (12:40) 11.1 (00:00) 14.2 5 (09:30) 2.78 (16:20) 0.1 0.1 0 0 0
09-06-2019 20 (13:10) 12.6 (00:00) 16.3 6.39 (16:50) 3.06 (17:00) 0.5 0 0 0 0.5
08-06-2019 17.3 (15:50) 6.5 (00:00) 11.9 7.78 (13:30) 4.17 (14:30) 0 0 0 0 0
07-06-2019 22.5 (00:10) 10.1 (00:00) 16.3 15 (03:40) 5 (07:30) 0.1 0.1 0 0 0
06-06-2019 25.4 (18:30) 8.2 (00:00) 16.8 11.39 (23:40) 5 (15:50) 0 0 0 0 0
05-06-2019 16.8 (16:50) 10.7 (00:00) 13.7 8.89 (14:50) 2.78 (17:00) 17 0.7 11 5.3 0
04-06-2019 25.4 (11:50) 13.5 (00:00) 19.4 11.39 (12:00) 5 (13:00) 0 0 0 0 0
03-06-2019 21.3 (16:00) 12.5 (00:00) 16.9 6.67 (13:40) 4.17 (13:40) 0 0 0 0 0
02-06-2019 28.1 (12:50) 13.5 (00:00) 20.8 8.33 (15:10) 4.17 (15:00) 0 0 0 0 0
01-06-2019 32.2 (16:50) 13.3 (00:00) 22.8 6.39 (09:50) 3.33 (09:50) 0 0 0 0 0
31-05-2019 25 (15:40) 10.2 (00:00) 17.6 7.22 (16:20) 3.89 (16:10) 0 0 0 0 0
30-05-2019 21.2 (12:50) 6.8 (00:00) 14 6.94 (14:30) 3.89 (13:50) 0 0 0 0 0
29-05-2019 17.4 (16:00) 10.1 (00:00) 13.8 6.11 (16:30) 3.06 (18:20) 1.4 1 0.4 0 0
28-05-2019 15.8 (17:50) 8.4 (00:00) 12.1 7.78 (18:20) 2.78 (20:20) 1.8 0 0.1 1.7 0

Gráficas

Temp. máximas Temp. mínimas Temp. medias Precipitaciones Rachas de viento máximas Velocidades máximas media en intervalos de 10 minutos

Datos horarios

Fecha y hora oficial Temperatura (ºC) Velocidad del viento (km/h) Dirección del viento Racha (km/h) Dirección de racha Precipitación (mm) Presión (hPa) Tendencia (hPa) Humedad (%)
2019-06-26 23:00:00 23.8 6 Norte 19 Nordeste 0 1001.5 3.9 71
2019-06-26 22:00:00 26.2 3 Nordeste 17 Norte 0 999.3 2.1 64
2019-06-26 21:00:00 28.8 5 Norte 10 Sudeste 0 998.1 0.5 52
2019-06-26 20:00:00 31.3 4 Norte 21 Nordeste 0 997.6 -0.3 45
2019-06-26 19:00:00 36.5 4 Sudeste 27 Este 0 997.2 -0.8 29
2019-06-26 18:00:00 36.5 9 Este 39 Sudeste 0 997.6 -0.8 29
2019-06-26 17:00:00 36 13 Este 33 Este 0 997.9 -1.2 29
2019-06-26 16:00:00 35.9 12 Este 33 Este 0 998 -1.5 30
2019-06-26 15:00:00 34.6 16 Este 53 Este 0 998.4 -1.6 32
2019-06-26 14:00:00 34.2 9 Este 29 Este 0 999.1 -1.3 33
2019-06-26 13:00:00 32.7 4 Sudeste 36 Este 0 999.5 -1.4 35
2019-06-26 12:00:00 30.6 9 Nordeste 26 Este 0 1000 -1.2 40
2019-06-26 11:00:00 25.7 3 Norte 11 Noroeste 0 1000.4 -1.1 68
2019-06-26 10:00:00 21.9 4 Norte -- -- -- 1000.9 -0.9 78
2019-06-26 09:00:00 20 2 Noroeste 11 Sudoeste 0 1001.2 -0.4 85
2019-06-26 08:00:00 18.3 5 Sudoeste 17 Sudoeste 0 1001.5 0 89
2019-06-26 07:00:00 18 6 Sudoeste 18 Sudoeste 0 1001.8 0.2 89
2019-06-26 06:00:00 18.1 6 Sudoeste 17 Sudoeste 0 1001.6 -0.5 89
2019-06-26 05:00:00 18 5 Sur 14 Sur 0 1001.5 -1 92
2019-06-26 04:00:00 17.7 0 Calma -- -- 0 1001.6 -1.6 92
2019-06-26 03:00:00 18.1 0 Calma 8 Norte 0 1002.1 -1.4 90
2019-06-26 02:00:00 18.3 5 Norte 9 Noroeste 0 1002.5 -0.8 88
2019-06-26 01:00:00 18.7 0 Calma -- -- 0 1003.2 0.4 87
2019-06-26 00:00:00 18.8 0 Calma -- -- 0 1003.5 0.6 86
2019-06-25 23:00:00 18.8 0 Calma -- -- 0 1003.3 0.8 86
2019-06-25 22:00:00 18.6 0 Calma 12 Norte 0 1002.8 0.5 85
2019-06-25 21:00:00 18.7 5 Norte 15 Norte 0 1002.9 0.7 84
2019-06-25 20:00:00 19.1 8 Norte 14 Norte 0 1002.5 0.1 83
2019-06-25 19:00:00 19.2 9 Norte 20 Norte 0 1002.3 0.1 83
2019-06-25 18:00:00 20.1 11 Norte 20 Noroeste 0 1002.2 0.1 80
2019-06-25 17:00:00 20.8 11 Norte 26 Noroeste 0 1002.4 0.2 76
2019-06-25 16:00:00 21.8 13 Norte 26 Noroeste 0 1002.2 -0.4 73
2019-06-25 15:00:00 22 12 Norte 21 Noroeste 0 1002.1 0 70
2019-06-25 14:00:00 22.4 10 Norte 22 Norte 0 1002.2 -0.3 71
2019-06-25 13:00:00 21 11 Norte 20 Norte 0 1002.6 0.1 74
2019-06-25 12:00:00 21 9 Norte 16 Norte 0 1002.1 -0.7 69
2019-06-25 11:00:00 21.2 0 Calma 8 Nordeste 0 1002.5 0 74
2019-06-25 10:00:00 18.3 0 Calma -- -- -- 1002.5 0.1 84
2019-06-25 09:00:00 17.4 0 Calma -- -- 0 1002.8 0.8 91
2019-06-25 08:00:00 15.6 0 Calma -- -- 0 1002.5 0.8 95
2019-06-25 07:00:00 13.8 0 Calma 0 Calma 0 1002.4 0.2 95
2019-06-25 06:00:00 14 0 Calma 9 Sudoeste 0 1002 -0.3 95
2019-06-25 05:00:00 14.1 0 Calma -- -- 0 1001.7 -0.7 94
2019-06-25 04:00:00 14.3 0 Calma 6 Sudoeste 0 1002.2 -0.5 93
2019-06-25 03:00:00 14.7 0 Calma 4 Este 0 1002.3 -0.3 92
2019-06-25 02:00:00 15.3 0 Calma 8 Sudeste 0 1002.4 0.4 89
2019-06-25 01:00:00 15.9 0 Calma 6 Sudoeste 0 1002.7 1.3 86
2019-06-25 00:00:00 17.1 0 Calma 13 Sudoeste 0 1002.6 1.8 82
2019-06-24 23:00:00 18.2 5 Sudoeste 13 Sudoeste 0 1002 2.2 78
2019-06-24 22:00:00 18.5 0 Calma 17 Sudoeste 0 1001.4 2.5 76
2019-06-24 21:00:00 19.1 0 Calma 15 Noroeste 0 1000.8 1.8 74
2019-06-24 20:00:00 20.4 5 Oeste 15 Noroeste 0 999.8 1.5 73
2019-06-24 19:00:00 21.7 5 Nordeste 15 Norte 0 998.9 0.8 75
2019-06-24 18:00:00 19.5 7 Norte 22 Nordeste 0 999 0.6 79
2019-06-24 17:00:00 21.2 6 Norte 17 Norte 0 998.3 0.1 70
2019-06-24 16:00:00 23.4 5 Norte 12 Nordeste 0 998.1 0.2 61
2019-06-24 15:00:00 22.6 4 Este 14 Noroeste 0 998.4 -0.2 68
2019-06-24 14:00:00 21.2 6 Norte 18 Nordeste 0 998.2 -0.6 72
2019-06-24 13:00:00 21.7 7 Norte 14 Norte 0 997.9 -0.7 73
2019-06-24 12:00:00 21.3 6 Norte 12 Noroeste 0 998.6 -0.3 75
2019-06-24 11:00:00 20.2 0 Calma 10 Norte 0 998.8 -0.4 76
2019-06-24 10:00:00 19.1 0 Calma 7 Noroeste 0 998.6 -0.9 82
2019-06-24 09:00:00 17.3 0 Calma -- -- 0 998.9 -0.6 91
2019-06-24 08:00:00 16.4 0 Calma -- -- 0 999.2 -0.2 93
2019-06-24 07:00:00 15.2 0 Calma -- -- 0 999.5 0.6 93
2019-06-24 06:00:00 15.4 0 Calma 17 Sudoeste 0 999.5 0.2 92
2019-06-24 05:00:00 15.6 0 Calma 9 Oeste 0 999.4 0.5 92
2019-06-24 04:00:00 16.1 0 Calma -- -- 0 998.9 -0.4 92
2019-06-24 03:00:00 16.3 0 Calma -- -- 0 999.3 -0.5 91
2019-06-24 02:00:00 16.4 0 Calma 5 Nordeste 0 998.9 -0.9 89
2019-06-24 01:00:00 16.7 0 Calma 4 Oeste 0 999.3 0.1 87
2019-06-24 00:00:00 17.3 0 Calma 7 Noroeste 0 999.8 0.7 85
2019-06-23 23:00:00 17.8 0 Calma -- -- 0 999.8 1 81
2019-06-23 22:00:00 19 0 Calma 9 Norte 0 999.2 0.6 75
2019-06-23 21:00:00 19.7 6 Norte 12 Noroeste 0 999.1 0.8 71
2019-06-23 20:00:00 20.2 8 Norte 15 Norte 0 998.8 0.5 68
2019-06-23 19:00:00 20.6 9 Norte 20 Norte 0 998.6 0.7 66
2019-06-23 18:00:00 22.2 11 Norte 20 Norte 0 998.3 1.4 61
2019-06-23 17:00:00 23.4 10 Norte 27 Norte 0 998.3 1.5 58
2019-06-23 16:00:00 22.9 13 Norte 32 Norte 0 997.9 1.3 60
2019-06-23 15:00:00 24.8 10 Norte 24 Norte 0 996.9 0.1 56
2019-06-23 14:00:00 25.7 10 Norte 16 Norte 0 996.8 -0.5 52
2019-06-23 13:00:00 29.8 2 Norte 13 Este 0 996.6 -0.6 46
2019-06-23 12:00:00 28.5 0 Calma 19 Oeste 0 996.8 0.2 49
2019-06-23 11:00:00 25.5 4 Sudoeste 12 Sudoeste 0 997.3 1.7 61
2019-06-23 10:00:00 21.9 4 Sudoeste 15 Sudoeste 0 997.2 1.8 71
2019-06-23 09:00:00 20.2 7 Sudoeste 25 Sudoeste 0 996.6 1.4 70
2019-06-23 08:00:00 21.1 12 Sudoeste 25 Sudoeste 0 995.6 0.8 63
2019-06-23 07:00:00 21.5 8 Sudoeste 24 Sudoeste 0 995.4 0.5 61
2019-06-23 06:00:00 21.2 13 Sudoeste 24 Sudoeste 0 995.2 -0.3 62
2019-06-23 05:00:00 20.7 6 Sudoeste 28 Oeste 0 994.8 -1.7 65
2019-06-23 04:00:00 18 5 Sudoeste 22 Oeste 0 994.9 -2.2 89
2019-06-23 03:00:00 17.5 9 Sudoeste 22 Sudoeste 0 995.5 -1.9 92
2019-06-23 02:00:00 17 0 Calma 7 Sudoeste 0 996.5 -1.2 90
2019-06-23 01:00:00 17.9 0 Calma -- -- 0 997.1 -0.2 89
2019-06-23 00:00:00 18.5 0 Calma -- -- 0 997.4 0.2 86
2019-06-22 23:00:00 19.1 0 Calma -- -- 0 997.7 0.3 83
2019-06-22 22:00:00 20.3 0 Calma 11 Norte 0 997.3 -0.2 76
2019-06-22 21:00:00 22 6 Norte 14 Norte 0 997.2 -0.5 66
2019-06-22 20:00:00 22.8 8 Norte 16 Norte 0 997.4 -0.8 65
2019-06-22 19:00:00 23.5 9 Norte 16 Norte 0 997.5 -1 62
2019-06-22 18:00:00 23.6 10 Norte 20 Nordeste 0 997.7 -1.7 62
2019-06-22 17:00:00 23.1 11 Norte 23 Norte 0 998.2 -2.1 63
2019-06-22 16:00:00 23.2 12 Norte 20 Norte 0 998.5 -2.5 61
2019-06-22 15:00:00 22.9 10 Norte 19 Norte 0 999.4 -2.5 62
2019-06-22 14:00:00 22.5 8 Norte 15 Norte 0 1000.3 -2.1 61
2019-06-22 13:00:00 22.3 2 Norte 9 Noroeste 0 1001 -2.3 58
2019-06-22 12:00:00 20 3 Nordeste 10 Nordeste 0 1001.9 -1.8 62
2019-06-22 11:00:00 17.5 0 Calma 8 Nordeste 0 1002.4 -1.7 74
2019-06-22 10:00:00 14.7 0 Calma 7 Este 0 1003.3 -0.8 92
2019-06-22 09:00:00 12.2 0 Calma 4 Este 0 1003.7 -0.6 96
2019-06-22 08:00:00 10 0 Calma 9 Sudoeste 0 1004.1 -0.8 96
2019-06-22 07:00:00 9.2 0 Calma -- -- 0 1004.1 -1.2 95
2019-06-22 06:00:00 8.6 0 Calma -- -- 0 1004.3 -1.6 95
2019-06-22 05:00:00 9.1 0 Calma -- -- 0 1004.9 -1.4 95
2019-06-22 04:00:00 9.3 0 Calma -- -- 0 1005.3 -1.4 94
2019-06-22 03:00:00 9.8 0 Calma 2 Sudeste 0 1005.9 -1.4 93
2019-06-22 02:00:00 10.6 2 Sudoeste 9 Sudoeste 0 1006.3 -0.9 92
2019-06-22 01:00:00 10.9 0 Calma 5 Este 0 1006.7 -0.2 91
2019-06-22 00:00:00 12 0 Calma -- -- 0 1007.3 1 88
2019-06-21 23:00:00 12.9 0 Calma 4 Nordeste 0 1007.2 1 85
2019-06-21 22:00:00 14.4 2 Noroeste 12 Noroeste 0 1006.9 0.9 79
2019-06-21 21:00:00 15.5 6 Noroeste 12 Norte 0 1006.3 0.3 71
2019-06-21 20:00:00 16.4 5 Norte 17 Norte 0 1006.2 0.3 68
2019-06-21 19:00:00 16.6 9 Norte 16 Norte 0 1006 -0.1 70
2019-06-21 18:00:00 16.7 9 Norte 18 Nordeste 0 1006 -0.2 71
2019-06-21 17:00:00 17.2 9 Norte 18 Nordeste 0 1005.9 -0.4 69
2019-06-21 16:00:00 17.5 8 Norte 19 Norte 0 1006.1 0 68
2019-06-21 15:00:00 18 10 Norte 21 Noroeste 0 1006.2 -0.3 66
2019-06-21 14:00:00 17.3 9 Norte 16 Norte 0 1006.3 0.1 67
2019-06-21 13:00:00 18.7 6 Nordeste 13 Nordeste 0 1006.1 0.1 70
2019-06-21 12:00:00 16.4 0 Calma 11 Este 0 1006.5 1.1 79
2019-06-21 11:00:00 15.2 0 Calma 8 Nordeste 0 1006.2 1 90
2019-06-21 10:00:00 13.7 0 Calma -- -- 0 1006 1.1 95
2019-06-21 09:00:00 13.4 0 Calma 6 Nordeste 1.2 1005.4 1.1 96
2019-06-21 08:00:00 12.8 0 Calma 14 Este 3.9 1005.2 1 95
2019-06-21 07:00:00 13.2 0 Calma -- -- 2.2 1004.9 0.7 95
2019-06-21 06:00:00 13.4 0 Calma -- -- 0 1004.3 -0.3 95
2019-06-21 05:00:00 13.4 0 Calma -- -- 0.1 1004.2 -0.3 95
2019-06-21 04:00:00 13.6 0 Calma -- -- 0.5 1004.2 -0.4 94
2019-06-21 03:00:00 13.7 3 Norte 9 Noroeste 0 1004.6 0.6 93
2019-06-21 02:00:00 14.1 0 Calma 9 Norte 1.1 1004.5 0.5 93
2019-06-21 01:00:00 14.5 6 Norte 15 Norte 1.1 1004.6 1 93
2019-06-21 00:00:00 14.9 0 Calma 5 Sudeste 1 1004 0.8 92
2019-06-20 23:00:00 15.1 0 Calma 13 Norte 0 1004 0.8 87
2019-06-20 22:00:00 15.9 3 Norte 14 Norte 0 1003.6 0.8 83
2019-06-20 21:00:00 16.3 8 Norte 14 Noroeste 0 1003.2 0.4 82
2019-06-20 20:00:00 16.3 7 Norte 17 Norte 0 1003.2 0.2 78
2019-06-20 19:00:00 16.9 11 Norte 19 Norte 0 1002.8 -0.5 75
2019-06-20 18:00:00 17.4 9 Norte 17 Norte 0 1002.8 -0.4 74
2019-06-20 17:00:00 17 8 Norte 16 Norte 0 1003 -0.5 76
2019-06-20 16:00:00 17.4 10 Norte 18 Noroeste 0 1003.3 -0.7 75
2019-06-20 15:00:00 17.4 9 Norte 14 Norte 0 1003.2 -0.6 75
2019-06-20 14:00:00 17.3 0 Calma 9 Noroeste 0 1003.5 -0.2 81
2019-06-20 13:00:00 16.3 0 Calma 6 Nordeste 0 1004 0.4 86
2019-06-20 12:00:00 15.8 0 Calma 4 Sur 0 1003.8 0.3 94
2019-06-20 11:00:00 14.7 0 Calma 9 Norte 0 1003.7 0.5 95
2019-06-20 10:00:00 14.7 5 Norte 10 Noroeste 0.1 1003.6 0.6 95
2019-06-20 09:00:00 14.9 2 Nordeste 6 Nordeste 0.3 1003.5 0.6 95
2019-06-20 08:00:00 15.1 0 Calma 8 Nordeste 0.2 1003.2 0.5 93
2019-06-20 07:00:00 15.4 0 Calma 7 Este 0 1003 0.2 91
2019-06-20 06:00:00 15.6 0 Calma -- -- 0 1002.9 -0.1 90
2019-06-20 05:00:00 15.8 0 Calma -- -- 0 1002.7 -0.6 89
2019-06-20 04:00:00 15.9 0 Calma 6 Sudeste 0 1002.8 -0.4 89
2019-06-20 03:00:00 16.1 6 Este 8 Sudeste 0 1003 -0.4 89
2019-06-20 02:00:00 16.1 0 Calma -- -- 0 1003.3 0.3 89
2019-06-20 01:00:00 16.1 3 Este 10 Noroeste 0 1003.2 1 88
2019-06-20 00:00:00 16.7 4 Oeste 11 Noroeste 0 1003.4 1.6 81
2019-06-19 23:00:00 17.1 3 Norte 9 Norte 0 1003 1.6 78
2019-06-19 22:00:00 17.2 5 Norte 14 Norte 0 1002.2 1.5 77
2019-06-19 21:00:00 17.5 7 Norte 16 Nordeste 0 1001.8 1.3 74
2019-06-19 20:00:00 17.7 9 Norte 21 Noroeste 0 1001.4 1 73
2019-06-19 19:00:00 18.4 10 Norte 24 Noroeste 0 1000.7 0.4 71
2019-06-19 18:00:00 19.8 12 Norte 24 Noroeste 0 1000.5 0.2 67
2019-06-19 17:00:00 19.7 12 Norte 27 Noroeste 0 1000.4 0.8 67
2019-06-19 16:00:00 19.9 11 Norte 23 Norte 0 1000.3 1.1 66
2019-06-19 15:00:00 20 11 Norte 27 Norte 0 1000.3 2 65
2019-06-19 14:00:00 20.3 12 Norte 27 Nordeste 0 999.6 1.8 62
2019-06-19 13:00:00 20.2 14 Norte 26 Nordeste 0 999.2 0.9 59
2019-06-19 12:00:00 25 5 Sudoeste 32 Sudoeste 0 998.3 -0.3 46
2019-06-19 11:00:00 24.1 12 Sur 25 Sudoeste 0 997.8 -0.6 50
2019-06-19 10:00:00 22.5 6 Sudoeste 22 Sudoeste 0 998.3 -0.2 59
2019-06-19 09:00:00 15.4 4 Noroeste 11 Noroeste 0 998.6 0 93
2019-06-19 08:00:00 13.7 0 Calma -- -- 0 998.4 0 93
2019-06-19 07:00:00 12.6 0 Calma 0 Calma 0 998.5 0.5 93
2019-06-19 06:00:00 12.9 0 Calma 6 Sur 0 998.6 0.5 92
2019-06-19 05:00:00 13.2 0 Calma 6 Oeste 0 998.4 0.5 92
2019-06-19 04:00:00 13.7 2 Sudoeste 8 Sudoeste 0 998 0.1 91
2019-06-19 03:00:00 14.1 0 Calma 11 Sur 0 998.1 0.5 91
2019-06-19 02:00:00 14.5 0 Calma 8 Sur 0 997.9 0.5 89
2019-06-19 01:00:00 15.3 4 Sur 9 Sudoeste 0 997.9 1.2 87
2019-06-19 00:00:00 16.3 5 Sur 13 Sur 0 997.6 1.4 85
2019-06-18 23:00:00 17.3 6 Sudoeste 23 Sudoeste 0 997.4 2.5 80
2019-06-18 22:00:00 18 14 Sudoeste 27 Sudoeste 0 996.7 3.1 77
2019-06-18 21:00:00 19.4 8 Sudoeste 21 Norte 0 996.2 3 76
2019-06-18 20:00:00 20.4 12 Norte 26 Norte 0 994.9 2.8 70
2019-06-18 19:00:00 25.6 10 Norte 19 Norte 0 993.6 0.8 48
2019-06-18 18:00:00 29.2 7 Noroeste 33 Oeste 0 993.2 -0.3 35
2019-06-18 17:00:00 34.2 7 Sudoeste 27 Sudoeste 0 992.1 -2 27
2019-06-18 16:00:00 33 10 Sudoeste 32 Oeste 0 992.8 -1.7 28
2019-06-18 15:00:00 31.7 6 Noroeste 24 Sur 0 993.5 -1.7 30
2019-06-18 14:00:00 31.2 4 Oeste 32 Oeste 0 994.1 -1.4 31
2019-06-18 13:00:00 29.7 5 Oeste 17 Oeste 0 994.5 -1.7 37
2019-06-18 12:00:00 28.5 4 Sudoeste 16 Sudoeste 0 995.2 -1.3 37
2019-06-18 11:00:00 26.6 3 Sudoeste 20 Oeste 0 995.5 -1.3 46
2019-06-18 10:00:00 22.5 5 Sudoeste -- -- -- 996.2 -0.5 61
2019-06-18 09:00:00 18.2 13 Sudoeste 30 Sudoeste 0 996.5 -0.3 78
2019-06-18 08:00:00 16.3 8 Sudoeste 18 Sudoeste 0 996.8 -0.9 92
2019-06-18 07:00:00 14.4 2 Sur 10 Sudeste 0 996.7 -2 93
2019-06-18 06:00:00 14.8 2 Sur 10 Sudoeste 0 996.8 -2.2 92
2019-06-18 05:00:00 15.1 0 Calma 14 Sudoeste 0 997.7 -1.4 89
2019-06-18 04:00:00 16.2 5 Sudoeste 19 Sudoeste 0 998.7 -1 86
2019-06-18 03:00:00 16.6 9 Sudoeste 17 Sudoeste 0 999 -0.7 86
2019-06-18 02:00:00 16.5 0 Calma 25 Sudoeste 0 999.1 -0.6 85
2019-06-18 01:00:00 16.8 9 Sudoeste 22 Sudoeste 0 999.7 0.2 84
2019-06-18 00:00:00 16.9 11 Sudoeste 19 Sudoeste 0 999.7 0.7 84
2019-06-17 23:00:00 17.3 10 Sudoeste 22 Sudoeste 0 999.7 1.6 83
2019-06-17 22:00:00 18 4 Sur 14 Nordeste 0 999.5 2.2 84
2019-06-17 21:00:00 17.9 9 Nordeste 20 Nordeste 0 999 1.6 83
2019-06-17 20:00:00 18.9 11 Norte 23 Norte 0 998.1 0.4 77
2019-06-17 19:00:00 22.7 11 Norte 19 Norte 0 997.3 -0.7 65
2019-06-17 18:00:00 25.1 9 Norte 19 Norte 0 997.4 -1.3 58
2019-06-17 17:00:00 25.4 12 Norte 26 Norte 0 997.7 -1.9 60
2019-06-17 16:00:00 25.1 12 Norte 21 Norte 0 998 -2.4 61
2019-06-17 15:00:00 24.9 9 Norte 19 Norte 0 998.7 -2.4 63
2019-06-17 14:00:00 24.4 9 Norte 14 Norte 0 999.6 -- 61
2019-06-17 13:00:00 24.3 4 Nordeste 9 Nordeste 0 1000.4 -- 61
2019-06-17 12:00:00 22.2 2 Norte 8 Nordeste 0 1001.1 -- 68
2019-06-17 11:00:00 -- -- -- -- -- -- -- -- --
2019-06-17 10:00:00 -- -- -- -- -- -- -- -- --
2019-06-17 09:00:00 -- -- -- -- -- -- -- -- --
2019-06-17 08:00:00 -- -- -- -- -- -- -- -- --
2019-06-17 07:00:00 -- -- -- -- -- -- -- -- --
2019-06-17 06:00:00 -- -- -- -- -- -- -- -- --
2019-06-17 05:00:00 -- -- -- -- -- -- -- -- --
2019-06-17 04:00:00 -- -- -- -- -- -- -- -- --
2019-06-17 03:00:00 -- -- -- -- -- -- -- -- --
2019-06-17 02:00:00 -- -- -- -- -- -- -- -- --
2019-06-17 01:00:00 -- -- -- -- -- -- -- -- --
2019-06-17 00:00:00 -- -- -- -- -- -- -- -- --
2019-06-16 23:00:00 -- -- -- -- -- -- -- -- --
2019-06-16 22:00:00 -- -- -- -- -- -- -- -- --
2019-06-16 21:00:00 -- -- -- -- -- -- -- -- --
2019-06-16 20:00:00 -- -- -- -- -- -- -- -- --
2019-06-16 19:00:00 -- -- -- -- -- -- -- -- --
2019-06-16 18:00:00 -- -- -- -- -- -- -- -- --
2019-06-16 17:00:00 -- -- -- -- -- -- -- -- --
2019-06-16 16:00:00 -- -- -- -- -- -- -- -- --
2019-06-16 15:00:00 -- -- -- -- -- -- -- -- --
2019-06-16 14:00:00 -- -- -- -- -- -- -- -- --
2019-06-16 13:00:00 -- -- -- -- -- -- -- -- --
2019-06-16 12:00:00 -- -- -- -- -- -- -- -- --
2019-06-16 11:00:00 -- -- -- -- -- -- -- -- --
2019-06-16 10:00:00 -- -- -- -- -- -- -- -- --
2019-06-16 09:00:00 -- -- -- -- -- -- -- -- --
2019-06-16 08:00:00 -- -- -- -- -- -- -- -- --
2019-06-16 07:00:00 -- -- -- -- -- -- -- -- --
2019-06-16 06:00:00 -- -- -- -- -- -- -- -- --
2019-06-16 05:00:00 -- -- -- -- -- -- -- -- --
2019-06-16 04:00:00 -- -- -- -- -- -- -- -- --
2019-06-16 03:00:00 -- -- -- -- -- -- -- -- --
2019-06-16 02:00:00 -- -- -- -- -- -- -- -- --
2019-06-16 01:00:00 -- -- -- -- -- -- -- -- --
2019-06-16 00:00:00 -- -- -- -- -- -- -- -- --
2019-06-15 23:00:00 -- -- -- -- -- -- -- -- --
2019-06-15 22:00:00 -- -- -- -- -- -- -- -- --
2019-06-15 21:00:00 -- -- -- -- -- -- -- -- --
2019-06-15 20:00:00 -- -- -- -- -- -- -- -- --
2019-06-15 19:00:00 -- -- -- -- -- -- -- -- --
2019-06-15 18:00:00 -- -- -- -- -- -- -- -- --
2019-06-15 17:00:00 -- -- -- -- -- -- -- -- --
2019-06-15 16:00:00 -- -- -- -- -- -- -- -- --
2019-06-15 15:00:00 -- -- -- -- -- -- -- -- --
2019-06-15 14:00:00 -- -- -- -- -- -- -- -- --
2019-06-15 13:00:00 -- -- -- -- -- -- -- -- --
2019-06-15 12:00:00 -- -- -- -- -- -- -- -- --
2019-06-15 11:00:00 -- -- -- -- -- -- -- -- --
2019-06-15 10:00:00 -- -- -- -- -- -- -- -- --
2019-06-15 09:00:00 -- -- -- -- -- -- -- -- --
2019-06-15 08:00:00 -- -- -- -- -- -- -- -- --
2019-06-15 07:00:00 -- -- -- -- -- -- -- -- --
2019-06-15 06:00:00 -- -- -- -- -- -- -- -- --
2019-06-15 05:00:00 -- -- -- -- -- -- -- -- --
2019-06-15 04:00:00 -- -- -- -- -- -- -- -- --
2019-06-15 03:00:00 -- -- -- -- -- -- -- -- --
2019-06-15 02:00:00 -- -- -- -- -- -- -- -- --
2019-06-15 01:00:00 -- -- -- -- -- -- -- -- --
2019-06-15 00:00:00 -- -- -- -- -- -- -- -- --
2019-06-14 23:00:00 -- -- -- -- -- -- -- -- --
2019-06-14 22:00:00 -- -- -- -- -- -- -- -- --
2019-06-14 21:00:00 -- -- -- -- -- -- -- -- --
2019-06-14 20:00:00 -- -- -- -- -- -- -- -- --
2019-06-14 19:00:00 -- -- -- -- -- -- -- -- --
2019-06-14 18:00:00 -- -- -- -- -- -- -- -- --
2019-06-14 17:00:00 -- -- -- -- -- -- -- -- --
2019-06-14 16:00:00 -- -- -- -- -- -- -- -- --
2019-06-14 15:00:00 -- -- -- -- -- -- -- -- --
2019-06-14 14:00:00 -- -- -- -- -- -- -- -- --
2019-06-14 13:00:00 -- -- -- -- -- -- -- -- --
2019-06-14 12:00:00 -- -- -- -- -- -- -- -- --
2019-06-14 11:00:00 -- -- -- -- -- -- -- -- --
2019-06-14 10:00:00 13.2 0 Calma -- -- 0 999.1 -0.4 92
2019-06-14 09:00:00 11.8 0 Calma -- -- 0 999.3 0 95
2019-06-14 08:00:00 10.7 0 Calma -- -- 0 999.3 0 94
2019-06-14 07:00:00 9.7 0 Calma -- -- 0 999.5 -0.4 93
2019-06-14 06:00:00 10.5 0 Calma -- -- 0 999.3 -0.6 92
2019-06-14 05:00:00 11 0 Calma -- -- 0 999.3 -1.3 92
2019-06-14 04:00:00 12.1 0 Calma -- -- 0 999.9 -0.8 90
2019-06-14 03:00:00 12.5 0 Calma -- -- 0 999.9 -0.8 89
2019-06-14 02:00:00 12.7 0 Calma -- -- 0 1000.6 0.1 87
2019-06-14 01:00:00 12.8 0 Calma -- -- 0 1000.7 1.1 86
2019-06-14 00:00:00 13 2 Noroeste 6 Noroeste 0 1000.7 2.1 83
2019-06-13 23:00:00 13.4 3 Noroeste 11 Noroeste 0 1000.5 2.5 79
2019-06-13 22:00:00 13.9 5 Noroeste 10 Noroeste 0 999.6 2.2 76
2019-06-13 21:00:00 14.3 0 Calma 10 Norte 0 998.6 1.3 74
2019-06-13 20:00:00 14.7 5 Norte 11 Norte 0 998 1 71
2019-06-13 19:00:00 15 5 Norte 16 Noroeste 0 997.4 0.3 71
2019-06-13 18:00:00 15.1 5 Oeste 19 Nordeste 0 997.3 0.6 74
2019-06-13 17:00:00 14.6 9 Norte 22 Norte 0 997 0.1 74
2019-06-13 16:00:00 15.2 10 Norte 23 Noroeste 0 997.1 -0.1 73
2019-06-13 15:00:00 15.8 12 Norte 24 Norte 0 996.7 -1.1 71
2019-06-13 14:00:00 16.5 12 Norte 20 Norte 0 996.9 -1.1 70
2019-06-13 13:00:00 16.5 9 Norte 18 Norte 0 997.2 -1.1 70
2019-06-13 12:00:00 15.3 9 Norte 17 Norte 0 997.8 -0.8 71
2019-06-13 11:00:00 15.3 7 Norte 16 Norte 0 998 -0.4 74
2019-06-13 10:00:00 12.8 0 Calma 6 Oeste 0 998.3 -0.4 86
2019-06-13 09:00:00 10.7 2 Sudoeste 12 Sudoeste 0 998.6 -0.1 92
2019-06-13 08:00:00 9.3 0 Calma 9 Sudoeste 0 998.4 -0.1 95
2019-06-13 07:00:00 8.3 0 Calma -- -- 0 998.7 -0.4 96
2019-06-13 06:00:00 8.1 0 Calma 5 Sudoeste 0 998.7 -0.6 95
2019-06-13 05:00:00 7.9 0 Calma -- -- 0 998.5 -1.5 94
2019-06-13 04:00:00 8.6 0 Calma -- -- 0 999.1 -1.3 92
2019-06-13 03:00:00 9.2 0 Calma -- -- 0 999.3 -1.5 91
2019-06-13 02:00:00 10.1 0 Calma -- -- 0 1000 -1.2 89
2019-06-13 01:00:00 10.5 0 Calma 4 Este 0 1000.4 -0.3 86
2019-06-13 00:00:00 11.7 0 Calma -- -- 0 1000.8 0.3 82
2019-06-12 23:00:00 12.9 0 Calma 8 Nordeste 0 1001.2 0.9 79
2019-06-12 22:00:00 13.1 3 Nordeste 10 Nordeste 0 1000.7 0.6 74
2019-06-12 21:00:00 13.6 6 Norte 13 Nordeste 0 1000.5 0.6 71
2019-06-12 20:00:00 14.6 7 Nordeste 16 Norte 0 1000.3 0.4 68
2019-06-12 19:00:00 15 8 Norte 18 Norte 0 1000.1 0.1 65
2019-06-12 18:00:00 16.3 10 Norte 20 Norte 0 999.9 0 62
2019-06-12 17:00:00 16.8 9 Nordeste 22 Noroeste 0 999.9 -0.4 61
2019-06-12 16:00:00 17.3 7 Norte 23 Norte 0 1000 -0.7 59
2019-06-12 15:00:00 18.8 7 Oeste 15 Noroeste 0.1 999.9 -0.7 49
2019-06-12 14:00:00 17.1 4 Noroeste 15 Sudoeste 0 1000.3 -0.2 50
2019-06-12 13:00:00 17.3 8 Sudoeste 16 Sudoeste 0 1000.7 0 48
2019-06-12 12:00:00 16.5 9 Sudoeste 20 Sudoeste 0 1000.6 -0.1 50
2019-06-12 11:00:00 14.7 6 Sudoeste 15 Oeste 0 1000.5 0.2 56
2019-06-12 10:00:00 13.3 3 Sudoeste 10 Sudoeste 0 1000.7 0.6 68
2019-06-12 09:00:00 11.5 5 Sudoeste 16 Sudoeste 0 1000.7 0.7 74
2019-06-12 08:00:00 9.3 6 Sudoeste 18 Sudoeste 0 1000.3 0.4 81
2019-06-12 07:00:00 8.9 7 Sudoeste 17 Sudoeste 0 1000.1 -0.1 83
2019-06-12 06:00:00 9 4 Sudoeste 14 Sudoeste 0 1000 -0.5 86
2019-06-12 05:00:00 8.5 10 Sudoeste 17 Sudoeste 0 999.9 -1.1 87
2019-06-12 04:00:00 9.4 7 Sudoeste 14 Sur 0 1000.2 -1.3 81
2019-06-12 03:00:00 10.8 4 Sudoeste 15 Sudoeste 0 1000.5 -1.3 77
2019-06-12 02:00:00 10.5 6 Sudoeste 14 Sur 0 1001 -1.2 81
2019-06-12 01:00:00 10.5 5 Sur 13 Sudoeste 0 1001.5 -0.8 84
2019-06-12 00:00:00 11.2 6 Sudoeste 14 Sudoeste 0 1001.8 -0.4 81
2019-06-11 23:00:00 11.4 6 Sudoeste 15 Sudoeste 0 1002.2 0 79
2019-06-11 22:00:00 11.9 8 Sudoeste 26 Oeste 0 1002.3 0 76
2019-06-11 21:00:00 13.2 4 Oeste 19 Noroeste 0 1002.2 -0.2 71
2019-06-11 20:00:00 13.5 5 Oeste 23 Noroeste 0 1002.2 -0.2 71
2019-06-11 19:00:00 14 0 Calma 27 Noroeste 0.5 1002.3 -0.2 77
2019-06-11 18:00:00 13.3 0 Calma 35 Sudoeste 0.4 1002.4 0.3 76
2019-06-11 17:00:00 14.5 4 Sudoeste 17 Sudoeste 0 1002.4 -0.1 74
2019-06-11 16:00:00 13 4 Oeste 30 Sudoeste 0.4 1002.5 0 75
2019-06-11 15:00:00 14 6 Sudoeste 24 Sudoeste 0.5 1002.1 -0.2 77
2019-06-11 14:00:00 13.5 12 Oeste 31 Oeste 0.1 1002.5 0.6 71
2019-06-11 13:00:00 12.6 8 Oeste 24 Sudoeste 0.5 1002.5 0.9 79
2019-06-11 12:00:00 12 6 Oeste 18 Oeste 0.5 1002.3 1.1 83
2019-06-11 11:00:00 11.5 10 Sudoeste -- -- -- 1001.9 0.7 83
2019-06-11 10:00:00 11.4 6 Sudoeste 15 Oeste 0.9 1001.6 0.5 87
2019-06-11 09:00:00 11.3 4 Sudoeste 11 Sudoeste 0 1001.2 -0.1 94
2019-06-11 08:00:00 10.3 0 Calma 11 Sudoeste 0.2 1001.2 -0.2 95
2019-06-11 07:00:00 10 0 Calma -- -- 0.4 1001.1 -0.7 95
2019-06-11 06:00:00 10.2 0 Calma 0 Calma 0.2 1001.3 -0.9 94
2019-06-11 05:00:00 10.2 0 Calma 17 Sur 0 1001.4 -0.7 94
2019-06-11 04:00:00 10.1 4 Sudoeste 10 Sur 0.3 1001.8 -1.3 94
2019-06-11 03:00:00 10.6 0 Calma 3 Nordeste 0.2 1002.2 -1.1 94
2019-06-11 02:00:00 10.7 0 Calma 5 Noroeste 1 1002.1 -1.4 92
2019-06-11 01:00:00 11 0 Calma 7 Sudoeste 0.3 1003.1 -0.6 90
2019-06-11 00:00:00 11.4 0 Calma -- -- 0 1003.3 -0.7 88
2019-06-10 23:00:00 11.7 0 Calma 5 Noroeste 0 1003.5 -0.6 83
2019-06-10 22:00:00 12.8 0 Calma 9 Sudeste 0 1003.7 -0.3 77
2019-06-10 21:00:00 13.2 0 Calma 10 Nordeste 0 1004 -0.4 74
2019-06-10 20:00:00 13.2 5 Norte 13 Norte 0 1004.1 -0.7 72
2019-06-10 19:00:00 13.7 4 Nordeste 14 Este 0 1004 -0.8 69
2019-06-10 18:00:00 14.3 5 Nordeste 13 Norte 0 1004.4 -0.9 68
2019-06-10 17:00:00 14.6 7 Nordeste 18 Nordeste 0 1004.8 -0.7 66
2019-06-10 16:00:00 15.2 5 Nordeste 12 Norte 0 1004.8 -0.8 65
2019-06-10 15:00:00 14.8 4 Nordeste 15 Norte 0 1005.3 -0.5 68
2019-06-10 14:00:00 14.2 8 Norte 17 Sudoeste 0 1005.5 -0.9 68
2019-06-10 13:00:00 15.6 5 Oeste 14 Oeste 0 1005.6 -1 61
2019-06-10 12:00:00 15.7 2 Sudeste 9 Sur 0 1005.8 -0.7 65
2019-06-10 11:00:00 13.4 3 Sur -- -- -- 1006.4 0 77
2019-06-10 10:00:00 12.6 0 Calma 18 Noroeste 0 1006.6 0.5 80
2019-06-10 09:00:00 13.2 3 Norte 9 Nordeste 0 1006.5 0.4 89
2019-06-10 08:00:00 11.6 0 Calma -- -- 0 1006.4 -0.1 93
2019-06-10 07:00:00 11.3 0 Calma -- -- 0 1006.1 -0.7 92
2019-06-10 06:00:00 11.3 2 Sudoeste 6 Sur 0 1006.1 -1.2 93
2019-06-10 05:00:00 11.5 0 Calma 6 Este 0 1006.5 -1.2 92
2019-06-10 04:00:00 11.8 0 Calma 7 Este 0 1006.8 -1.5 92
2019-06-10 03:00:00 12 0 Calma 8 Sudoeste 0 1007.3 -0.6 92
2019-06-10 02:00:00 12.4 0 Calma 8 Oeste 0.1 1007.7 0.2 92
2019-06-10 01:00:00 12.4 0 Calma 11 Oeste 0 1008.3 1.4 92
2019-06-10 00:00:00 12.6 0 Calma -- -- 0.1 1007.9 1.2 92
2019-06-09 23:00:00 12.8 0 Calma 12 Oeste 0.1 1007.5 1.7 92
2019-06-09 22:00:00 13 0 Calma 12 Noroeste 0.2 1006.9 1.7 92
2019-06-09 21:00:00 13.4 0 Calma 8 Norte 0.1 1006.7 1.9 92
2019-06-09 20:00:00 13.8 0 Calma 12 Noroeste 0 1005.8 1.5 90
2019-06-09 19:00:00 14.4 0 Calma 18 Noroeste 0 1005.2 1.3 86
2019-06-09 18:00:00 15.1 4 Noroeste 18 Noroeste 0 1004.8 1.1 80
2019-06-09 17:00:00 15.9 11 Norte 23 Nordeste 0 1004.3 1 77
2019-06-09 16:00:00 17.3 5 Noroeste 16 Nordeste 0 1003.9 0.7 75
2019-06-09 15:00:00 16.8 6 Norte 18 Nordeste 0 1003.7 0.2 75
2019-06-09 14:00:00 17.4 10 Norte 20 Norte 0 1003.3 -0.4 71
2019-06-09 13:00:00 19.5 5 Sudoeste 12 Sudoeste 0 1003.2 -0.9 60
2019-06-09 12:00:00 18.5 3 Sur 10 Sur 0 1003.5 -0.6 64
2019-06-09 11:00:00 17.5 2 Sudeste 9 Sudoeste 0 1003.7 -0.4 70
2019-06-09 10:00:00 17.1 0 Calma 10 Sudoeste 0 1004.1 0.3 73
2019-06-09 09:00:00 15 0 Calma 9 Sudoeste 0 1004.1 0.1 84
2019-06-09 08:00:00 13.1 3 Sudoeste 9 Sudoeste 0 1004.1 -0.4 86
2019-06-09 07:00:00 13.1 0 Calma 8 Sudoeste 0 1003.8 -1.4 82
2019-06-09 06:00:00 13.5 0 Calma 8 Sudoeste 0 1004 -1.5 82
2019-06-09 05:00:00 13.7 0 Calma 8 Sur 0 1004.5 -1.6 81
2019-06-09 04:00:00 13.8 0 Calma 16 Oeste 0 1005.2 -1.7 80
2019-06-09 03:00:00 13.7 0 Calma 5 Este 0 1005.5 -1.6 82
2019-06-09 02:00:00 13.9 0 Calma 6 Norte 0 1006.1 -1.2 80
2019-06-09 01:00:00 14.1 0 Calma 8 Noroeste 0 1006.9 -0.2 79
2019-06-09 00:00:00 14.2 4 Noroeste 8 Noroeste 0 1007.1 0.1 78
2019-06-08 23:00:00 14.4 0 Calma 9 Nordeste 0 1007.3 0.4 77
2019-06-08 22:00:00 14.4 5 Nordeste 14 Este 0 1007.1 0.4 76
2019-06-08 21:00:00 14.6 6 Nordeste 18 Noroeste 0 1007 0.1 73
2019-06-08 20:00:00 15 9 Norte 21 Norte 0 1006.9 0 71
2019-06-08 19:00:00 15.5 10 Norte 23 Noroeste 0 1006.7 -0.8 69
2019-06-08 18:00:00 15.3 12 Norte 24 Norte 0 1006.9 -1.3 69
2019-06-08 17:00:00 15.6 14 Norte 26 Norte 0 1006.9 -2.1 68
2019-06-08 16:00:00 17 14 Norte 26 Noroeste 0 1007.5 -2 65
2019-06-08 15:00:00 16.7 13 Norte 25 Norte 0 1008.2 -1.6 64
2019-06-08 14:00:00 16.5 12 Norte 28 Norte 0 1009 -1.4 63
2019-06-08 13:00:00 16.2 12 Norte 26 Nordeste 0 1009.5 -1.4 65
2019-06-08 12:00:00 15.6 13 Norte 24 Norte 0 1009.8 -1.6 64
2019-06-08 11:00:00 15.5 3 Norte 14 Nordeste 0 1010.4 -0.9 67
2019-06-08 10:00:00 13.4 0 Calma 6 Nordeste 0 1010.9 -0.4 76
2019-06-08 09:00:00 10.9 0 Calma 9 Sudoeste 0 1011.4 0.5 83
2019-06-08 08:00:00 8.8 0 Calma 4 Sudoeste 0 1011.3 0.6 93
2019-06-08 07:00:00 6.6 0 Calma 7 Oeste 0 1011.3 0.5 92
2019-06-08 06:00:00 7 0 Calma 8 Sudoeste 0 1010.9 0.2 92
2019-06-08 05:00:00 7.3 3 Sudoeste 8 Sur 0 1010.7 0.1 91
2019-06-08 04:00:00 7.7 0 Calma 8 Sudoeste 0 1010.8 0.4 89
2019-06-08 03:00:00 8.2 0 Calma 3 Sudeste 0 1010.7 0.7 87
2019-06-08 02:00:00 8.7 0 Calma 8 Sudoeste 0 1010.6 1.2 84
2019-06-08 01:00:00 9.2 0 Calma 0 Calma 0 1010.4 1.8 80
2019-06-08 00:00:00 10.1 0 Calma 2 Nordeste 0 1010 2.1 74
2019-06-07 23:00:00 11.3 0 Calma 5 Sudoeste 0 1009.4 2.2 65
2019-06-07 22:00:00 13.7 3 Sudoeste 10 Oeste 0 1008.6 2.2 56
2019-06-07 21:00:00 15.1 2 Sudoeste 12 Sudoeste 0 1007.9 2.4 54
2019-06-07 20:00:00 15.7 3 Oeste 16 Oeste 0 1007.2 2.6 53
2019-06-07 19:00:00 16.6 6 Oeste 22 Noroeste 0 1006.4 3.2 50
2019-06-07 18:00:00 16.9 5 Oeste 28 Oeste 0 1005.5 3.6 50
2019-06-07 17:00:00 16.5 11 Oeste 35 Noroeste 0 1004.6 3.5 49
2019-06-07 16:00:00 17 8 Norte 27 Noroeste 0 1003.2 3 51
2019-06-07 15:00:00 19.1 9 Noroeste 33 Noroeste 0 1001.9 2.7 48
2019-06-07 14:00:00 19.3 8 Oeste 22 Oeste 0 1001.1 3 44
2019-06-07 13:00:00 20 6 Sudoeste 21 Sudoeste 0 1000.2 3.5 41
2019-06-07 12:00:00 19.7 8 Sudoeste 19 Sudoeste 0 999.2 4 43
2019-06-07 11:00:00 18.5 9 Sur 25 Sur 0 998.1 3.4 46
2019-06-07 10:00:00 17.5 0 Calma 30 Sur 0 996.7 3 50
2019-06-07 09:00:00 15.7 10 Sur 41 Sudeste 0 995.2 2.4 50
2019-06-07 08:00:00 14.8 11 Sudeste 45 Oeste 0 994.7 2.4 53
2019-06-07 07:00:00 13.7 12 Sur 36 Sur 0 993.7 1.9 55
2019-06-07 06:00:00 13.4 8 Sur 39 Sudoeste 0 992.8 1.8 57
2019-06-07 05:00:00 13.3 5 Sudoeste 44 Sudoeste 0 992.3 1.9 59
2019-06-07 04:00:00 14.1 8 Sur 54 Sur 0 991.8 3.2 58
2019-06-07 03:00:00 15.4 8 Sur 38 Sudoeste 0.1 991 3.4 57
2019-06-07 02:00:00 17.5 17 Sudoeste 42 Sudoeste 0 990.4 3.7 49
2019-06-07 01:00:00 20.2 7 Sudoeste 41 Sudoeste 0 988.6 2.6 44
2019-06-07 00:00:00 22.4 7 Sudoeste 41 Sudoeste 0 987.6 1.8 36
2019-06-06 23:00:00 21.6 3 Sur 35 Sudoeste 0 986.7 0.3 36
2019-06-06 22:00:00 23.4 4 Sudoeste 16 Oeste 0 986 -0.6 33
2019-06-06 21:00:00 24.1 6 Sudoeste 20 Sudoeste 0 985.8 -2.3 32
2019-06-06 20:00:00 24.8 2 Sudoeste 26 Sudoeste 0 986.4 -3.4 32
2019-06-06 19:00:00 25.1 4 Nordeste 36 Este 0 986.6 -4.7 32
2019-06-06 18:00:00 24.3 16 Este 34 Este 0 988.1 -5.2 38
2019-06-06 17:00:00 24 12 Este 37 Nordeste 0 989.8 -4.8 40
2019-06-06 16:00:00 22.8 14 Este 37 Este 0 991.3 -4.4 44
2019-06-06 15:00:00 19.9 3 Oeste 16 Norte 0 993.3 -3.8 60
2019-06-06 14:00:00 17.6 7 Norte 20 Norte 0 994.6 -3.2 64
2019-06-06 13:00:00 19 5 Norte 11 Noroeste 0 995.7 -3.2 58
2019-06-06 12:00:00 17.4 2 Nordeste 9 Norte 0 997.1 -2.8 59
2019-06-06 11:00:00 15.5 4 Noroeste 9 Noroeste 0 997.8 -2.6 65
2019-06-06 10:00:00 14 0 Calma 7 Sudoeste 0 998.9 -1.7 76
2019-06-06 09:00:00 11.2 0 Calma -- -- 0 999.9 -0.8 93
2019-06-06 08:00:00 9.2 0 Calma -- -- 0 1000.4 -0.6 94
2019-06-06 07:00:00 8.4 0 Calma -- -- 0 1000.6 -0.3 93
2019-06-06 06:00:00 8.4 0 Calma -- -- 0 1000.7 -0.5 92
2019-06-06 05:00:00 8.8 3 Nordeste 6 Nordeste 0 1001 -0.5 91
2019-06-06 04:00:00 9.6 0 Calma 7 Sudoeste 0 1000.9 -1.1 90
2019-06-06 03:00:00 10 0 Calma -- -- 0 1001.2 -0.9 89
2019-06-06 02:00:00 10.4 0 Calma 7 Sudoeste 0 1001.5 -0.4 87
2019-06-06 01:00:00 10.5 0 Calma 5 Sudoeste 0 1002 0.5 86
2019-06-06 00:00:00 10.8 3 Sudoeste 10 Sudoeste 0 1002.1 1.1 83
2019-06-05 23:00:00 11.3 0 Calma 0 Calma 0 1001.9 1.1 77
2019-06-05 22:00:00 12.8 0 Calma 12 Sudoeste 0 1001.5 1.3 68
2019-06-05 21:00:00 13.7 3 Oeste 14 Oeste 0 1001 0.9 65
2019-06-05 20:00:00 14.5 3 Sudoeste 27 Oeste 0 1000.8 1.1 62
2019-06-05 19:00:00 15.2 5 Noroeste 16 Noroeste 0 1000.2 0.4 62
2019-06-05 18:00:00 15.6 4 Noroeste 27 Sudoeste 0 1000.1 0.7 64
2019-06-05 17:00:00 15.8 10 Noroeste 22 Oeste 0 999.7 0.4 64
2019-06-05 16:00:00 14 7 Oeste 30 Sudoeste 0 999.8 1.1 74
2019-06-05 15:00:00 14.2 8 Sudoeste 32 Sudoeste 0.8 999.4 1.5 80
2019-06-05 14:00:00 12.8 6 Oeste 21 Sudoeste 1.6 999.3 1.9 87
2019-06-05 13:00:00 12.5 0 Calma 18 Noroeste 2.9 998.7 1.4 87
2019-06-05 12:00:00 12.7 8 Sudoeste 17 Sudoeste 0.2 997.9 0.9 92
2019-06-05 11:00:00 12 2 Sudoeste 8 Sudoeste 0.6 997.4 0.6 95
2019-06-05 10:00:00 11.5 0 Calma 8 Este 1.1 997.3 1 95
2019-06-05 09:00:00 11.4 0 Calma 6 Este 4.6 997 0.8 95
2019-06-05 08:00:00 11.3 6 Este 11 Noroeste 3.1 996.8 0.8 95
2019-06-05 07:00:00 11.7 0 Calma -- -- 1.4 996.3 -0.1 95
2019-06-05 06:00:00 11.9 0 Calma -- -- 0.6 996.2 -1.1 95
2019-06-05 05:00:00 11.8 0 Calma 8 Este 0 996 -1.9 94
2019-06-05 04:00:00 12 4 Este 11 Nordeste 0.1 996.4 -1.7 94
2019-06-05 03:00:00 12.9 3 Nordeste 7 Nordeste 0 997.3 -1.3 92
2019-06-05 02:00:00 13.1 0 Calma -- -- 0 997.9 -0.5 91
2019-06-05 01:00:00 13.3 0 Calma 6 Sudoeste 0 998.1 -0.2 89
2019-06-05 00:00:00 13.5 0 Calma 0 Calma 0 998.6 0.1 86
2019-06-04 23:00:00 14.1 0 Calma 6 Este 0 998.4 -0.1 82
2019-06-04 22:00:00 14.2 4 Este 9 Oeste 0 998.3 0.2 80
2019-06-04 21:00:00 14.7 0 Calma 8 Sudoeste 0 998.5 1.5 78
2019-06-04 20:00:00 14.6 4 Sur 16 Norte 0 998.5 2 79
2019-06-04 19:00:00 15.1 6 Sudeste 24 Oeste 0 998.1 2 77
2019-06-04 18:00:00 17.6 3 Norte 18 Norte 0 997 1.6 74
2019-06-04 17:00:00 18.3 6 Nordeste 15 Norte 0 996.5 1.5 76
2019-06-04 16:00:00 17.9 6 Nordeste 26 Norte 0 996.1 1.9 77
2019-06-04 15:00:00 19.2 11 Norte 23 Nordeste 0 995.4 2.1 71
2019-06-04 14:00:00 19.9 14 Norte 27 Nordeste 0 995 1.5 72
2019-06-04 13:00:00 19 18 Norte 37 Norte 0 994.2 0.4 70
2019-06-04 12:00:00 25.1 6 Oeste 41 Sudoeste 0 993.3 -0.6 50
2019-06-04 11:00:00 24.6 2 Nordeste 19 Noroeste 0 993.5 -0.5 52
2019-06-04 10:00:00 22.7 3 Oeste 24 Sudoeste 0 993.8 -0.4 54
2019-06-04 09:00:00 19.1 0 Calma 18 Sudoeste 0 993.9 0.1 71
2019-06-04 08:00:00 15.8 4 Sur 22 Sudoeste 0 994 0.1 88
2019-06-04 07:00:00 14.1 7 Sudoeste 15 Sur 0 994.2 -0.5 93
2019-06-04 06:00:00 14.1 0 Calma 6 Este 0 993.8 -2.1 91
2019-06-04 05:00:00 14.8 0 Calma 9 Sudoeste 0 993.9 -3.4 87
2019-06-04 04:00:00 16.6 2 Sudoeste 10 Oeste 0 994.7 -3.9 85
2019-06-04 03:00:00 16.9 5 Sudoeste 9 Sudoeste 0 995.9 -3.5 84
2019-06-04 02:00:00 17 0 Calma 6 Sur 0 997.3 -2.3 85
2019-06-04 01:00:00 17.2 0 Calma -- -- 0 998.6 -- 85
2019-06-04 00:00:00 17.1 0 Calma 8 Norte 0 999.4 0 84
2019-06-03 23:00:00 17.2 5 Norte -- -- -- 999.6 0.5 83
2019-06-03 22:00:00 -- 3 Norte 15 Noroeste 0 -- -- --
2019-06-03 21:00:00 17.4 8 Norte 23 Norte 0 999.4 -0.1 78
2019-06-03 20:00:00 18.4 11 Norte 22 Norte 0 999.1 -1 71
2019-06-03 19:00:00 20.2 9 Norte 21 Norte 0 999.1 -1.3 64
2019-06-03 18:00:00 20.2 8 Norte 21 Norte 0 999.5 -1.8 64
2019-06-03 17:00:00 19.3 12 Norte 23 Noroeste 0 1000.1 -- 67
2019-06-03 16:00:00 21.2 10 Norte 22 Norte 0 1000.4 -1.5 66
2019-06-03 15:00:00 20.7 9 Norte 21 Norte 0 1001.3 -1.3 68
2019-06-03 14:00:00 -- 12 Norte -- -- -- -- -- --
2019-06-03 13:00:00 20.8 9 Norte 16 Noroeste 0 1001.9 -1.8 66
2019-06-03 12:00:00 20.4 7 Norte 15 Noroeste 0 1002.6 -1.3 63
2019-06-03 11:00:00 19.2 2 Norte 8 Noroeste 0 1003.4 0.4 65
2019-06-03 10:00:00 16.4 0 Calma 11 Este 0 1003.7 0.3 80
2019-06-03 09:00:00 15 0 Calma -- -- 0 1003.9 0.7 85
2019-06-03 08:00:00 13.2 0 Calma -- -- 0 1003 -0.4 87
2019-06-03 07:00:00 12.6 0 Calma -- -- 0 1003.4 0.1 87
2019-06-03 06:00:00 12.7 0 Calma -- -- 0 1003.2 -0.1 86
2019-06-03 05:00:00 12.8 0 Calma -- -- 0 1003.4 -0.3 83
2019-06-03 04:00:00 13.5 0 Calma 4 Nordeste 0 1003.3 -1.1 82
2019-06-03 03:00:00 13.7 0 Calma 5 Nordeste 0 1003.3 -1 80
2019-06-03 02:00:00 14 2 Este 5 Este 0 1003.7 -0.5 77
2019-06-03 01:00:00 14.4 0 Calma -- -- 0 1004.4 1 74
2019-06-03 00:00:00 15.2 0 Calma 5 Este 0 1004.3 1.1 71
2019-06-02 23:00:00 16.1 0 Calma 6 Este 0 1004.2 1.6 68
2019-06-02 22:00:00 18.1 0 Calma 10 Norte 0 1003.4 0.9 62
2019-06-02 21:00:00 19.7 6 Norte 12 Norte 0 1003.2 1 58
2019-06-02 20:00:00 21.1 7 Norte 12 Norte 0 1002.6 0.9 51
2019-06-02 19:00:00 22.1 3 Norte 15 Norte 0 1002.5 1 50
2019-06-02 18:00:00 22.7 9 Norte 23 Norte 0 1002.2 1.3 47
2019-06-02 17:00:00 23.4 9 Norte 21 Norte 0 1001.7 0.8 46
2019-06-02 16:00:00 24.3 11 Norte 30 Norte 0 1001.5 0.3 49
2019-06-02 15:00:00 23.9 15 Norte 28 Noroeste 0 1000.9 -0.9 50
2019-06-02 14:00:00 25 9 Norte 21 Nordeste 0 1000.9 -0.9 48
2019-06-02 13:00:00 26.6 8 Norte 17 Norte 0 1001.2 -1.3 47
2019-06-02 12:00:00 27 3 Sur 9 Sudeste 0 1001.8 -0.9 48
2019-06-02 11:00:00 24.2 2 Nordeste 8 Nordeste 0 1001.8 -1.3 59
2019-06-02 10:00:00 20.9 0 Calma 6 Este 0 1002.5 -0.5 68
2019-06-02 09:00:00 18.3 0 Calma 10 Sur 0 1002.7 0 80
2019-06-02 08:00:00 15.2 2 Sur 13 Sudoeste 0 1003.1 0 90
2019-06-02 07:00:00 13.7 0 Calma 8 Sudoeste 0 1003 -0.3 91
2019-06-02 06:00:00 14 0 Calma 11 Sudoeste 0 1002.7 -0.7 90
2019-06-02 05:00:00 14.3 0 Calma 12 Sudoeste 0 1003.1 0.1 89
2019-06-02 04:00:00 15.1 4 Sudoeste 8 Sudoeste 0 1003.3 0.2 86
2019-06-02 03:00:00 15.7 0 Calma 10 Sudoeste 0 1003.4 0.3 84
2019-06-02 02:00:00 16.6 3 Sudoeste 8 Sur 0 1003 0.5 80
2019-06-02 01:00:00 17.8 4 Sudoeste 9 Sudoeste 0 1003.1 1.4 77
2019-06-02 00:00:00 18.5 0 Calma -- -- 0 1003.1 1.9 71
2019-06-01 23:00:00 20.4 0 Calma 5 Nordeste 0 1002.5 1.7 63
2019-06-01 22:00:00 22.7 0 Calma -- -- 0 1001.7 0.8 51
2019-06-01 21:00:00 26.3 0 Calma 12 Norte 0 1001.2 0 43
2019-06-01 20:00:00 28 5 Norte 12 Noroeste 0 1000.8 -0.7 38
2019-06-01 19:00:00 28.8 7 Norte 20 Norte 0 1000.9 -1 36
2019-06-01 18:00:00 29.7 9 Norte 19 Norte 0 1001.2 -1.3 36
2019-06-01 17:00:00 31.9 6 Nordeste 17 Este 0 1001.5 -1.8 33
2019-06-01 16:00:00 31.8 7 Este 17 Este 0 1001.9 -2 33
2019-06-01 15:00:00 30.7 5 Nordeste 20 Nordeste 0 1002.5 -1.8 35
2019-06-01 14:00:00 30.2 6 Nordeste 21 Este 0 1003.3 -0.9 37
2019-06-01 13:00:00 29.7 3 Sudeste 18 Sudoeste 0 1003.9 -0.7 39
2019-06-01 12:00:00 27.5 8 Sudoeste 17 Sudoeste 0 1004.3 -0.6 44
2019-06-01 11:00:00 25 6 Sudoeste 23 Sudoeste 0 1004.2 -1 47
2019-06-01 10:00:00 20.7 10 Sudoeste 23 Sudoeste 0 1004.6 -0.4 64
2019-06-01 09:00:00 16.9 8 Sudoeste 17 Sur 0 1004.9 0.2 81
2019-06-01 08:00:00 15 7 Sudoeste 22 Sudoeste 0 1005.2 0.4 91
2019-06-01 07:00:00 14.2 10 Sudoeste 21 Sudoeste 0 1005 0 95
2019-06-01 06:00:00 13.9 0 Calma 15 Sudoeste 0 1004.7 -0.8 95
2019-06-01 05:00:00 14 3 Sur 15 Sudoeste 0 1004.8 -1 94
2019-06-01 04:00:00 13.6 0 Calma -- -- 0 1005 -1.2 93
2019-06-01 03:00:00 13.7 0 Calma -- -- 0 1005.5 -1.2 92
2019-06-01 02:00:00 14.2 0 Calma -- -- 0 1005.8 -0.9 90
2019-06-01 01:00:00 15.1 0 Calma -- -- 0 1006.2 0 89
2019-06-01 00:00:00 16 0 Calma -- -- 0 1006.7 0.7 85
2019-05-31 23:00:00 17.2 0 Calma -- -- 0 1006.7 0.7 78
2019-05-31 22:00:00 19.1 0 Calma 6 Norte 0 1006.2 0 69
2019-05-31 21:00:00 20.8 3 Norte 15 Norte 0 1006 -0.5 61
2019-05-31 20:00:00 22.3 9 Norte 17 Norte 0 1006 -0.9 57
2019-05-31 19:00:00 23.7 7 Norte 17 Noroeste 0 1006.2 -1 55
2019-05-31 18:00:00 24.1 9 Norte 22 Noroeste 0 1006.5 -1 54
2019-05-31 17:00:00 24.4 10 Norte 26 Nordeste 0 1006.9 -1 54
2019-05-31 16:00:00 24.6 12 Norte 21 Noroeste 0 1007.2 -1.1 55
2019-05-31 15:00:00 24.6 10 Norte 20 Nordeste 0 1007.5 -1.2 55
2019-05-31 14:00:00 23.8 12 Norte 19 Norte 0 1007.9 -1.2 56
2019-05-31 13:00:00 23.9 8 Norte 16 Nordeste 0 1008.3 -1.3 57
2019-05-31 12:00:00 23.3 0 Calma 10 Noroeste 0 1008.7 -1 56
2019-05-31 11:00:00 20.9 0 Calma -- -- 0 1009.1 -0.7 70
2019-05-31 10:00:00 18.1 0 Calma -- -- 0 1009.6 -0.2 81
2019-05-31 09:00:00 14.9 0 Calma -- -- 0 1009.7 -0.4 95
2019-05-31 08:00:00 12.2 0 Calma -- -- 0 1009.8 -0.5 96
2019-05-31 07:00:00 10.3 0 Calma 8 Sudoeste 0 1009.8 -0.7 96
2019-05-31 06:00:00 10.8 0 Calma -- -- 0 1010.1 -0.8 95
2019-05-31 05:00:00 10.8 0 Calma -- -- 0 1010.3 -1.1 95
2019-05-31 04:00:00 11.5 0 Calma -- -- 0 1010.5 -1.6 94
2019-05-31 03:00:00 11.8 0 Calma 0 Calma 0 1010.9 -1.2 93
2019-05-31 02:00:00 12.1 0 Calma -- -- 0 1011.4 -0.6 92
2019-05-31 01:00:00 12.8 0 Calma -- -- 0 1012.1 0.9 91
2019-05-31 00:00:00 13.2 0 Calma -- -- 0 1012.1 0.9 88
2019-05-30 23:00:00 14.4 0 Calma -- -- 0 1012 1.2 84
2019-05-30 22:00:00 15.9 0 Calma 13 Norte 0 1011.2 0.3 77
2019-05-30 21:00:00 17 8 Nordeste 16 Norte 0 1011.2 0.2 71
2019-05-30 20:00:00 18.5 8 Norte 24 Noroeste 0 1010.8 -0.2 62
2019-05-30 19:00:00 19.9 9 Norte 21 Norte 0 1010.9 -0.4 60
2019-05-30 18:00:00 19.9 11 Norte 24 Norte 0 1011 -0.5 59
2019-05-30 17:00:00 20.5 10 Norte 23 Norte 0 1011 -0.8 58
2019-05-30 16:00:00 20.2 11 Norte 22 Noroeste 0 1011.3 -0.6 56
2019-05-30 15:00:00 19.3 14 Norte 25 Nordeste 0 1011.5 -1 54
2019-05-30 14:00:00 19.9 11 Norte 24 Norte 0 1011.8 -1.1 54
2019-05-30 13:00:00 20.8 9 Norte 17 Norte 0 1011.9 -1.4 52
2019-05-30 12:00:00 19.9 2 Oeste 8 Sudoeste 0 1012.5 -1.2 53
2019-05-30 11:00:00 17 0 Calma 6 Sudoeste 0 1012.9 -0.7 64
2019-05-30 10:00:00 13.3 3 Sudoeste 9 Sudoeste 0 1013.3 0.1 81
2019-05-30 09:00:00 10.7 3 Sudoeste 12 Sur 0 1013.7 0.7 93
2019-05-30 08:00:00 8.9 0 Calma -- -- 0 1013.6 0.7 96
2019-05-30 07:00:00 7.2 0 Calma 9 Sudoeste 0 1013.2 -0.1 96
2019-05-30 06:00:00 7.3 0 Calma 8 Sudoeste 0 1013 -0.7 95
2019-05-30 05:00:00 7.5 0 Calma -- -- 0 1012.9 -1.1 94
2019-05-30 04:00:00 7.8 0 Calma -- -- 0 1013.3 -0.7 93
2019-05-30 03:00:00 8.3 0 Calma -- -- 0 1013.7 -0.3 93
2019-05-30 02:00:00 8.9 0 Calma 5 Sudoeste 0 1014 0.3 91
2019-05-30 01:00:00 9.4 0 Calma -- -- 0 1014 0.9 89
2019-05-30 00:00:00 10.2 0 Calma -- -- 0 1014 0.8 87
2019-05-29 23:00:00 11.3 0 Calma -- -- 0 1013.7 0.8 82
2019-05-29 22:00:00 12.8 0 Calma -- -- 0 1013.1 0.3 75
2019-05-29 21:00:00 14.1 0 Calma 10 Norte 0 1013.2 0.5 68
2019-05-29 20:00:00 14.8 8 Norte 17 Norte 0 1012.9 0.2 65
2019-05-29 19:00:00 15.9 9 Norte 21 Norte 0 1012.8 0.4 62
2019-05-29 18:00:00 16.4 9 Norte 22 Norte 0 1012.7 0 59
2019-05-29 17:00:00 17.3 8 Norte 22 Nordeste 0 1012.7 -0.1 59
2019-05-29 16:00:00 17 9 Norte 17 Noroeste 0 1012.4 -0.6 62
2019-05-29 15:00:00 16.4 6 Norte 15 Noroeste 0 1012.7 -0.1 61
2019-05-29 14:00:00 16.5 4 Nordeste 15 Oeste 0 1012.8 0.1 62
2019-05-29 13:00:00 15.5 6 Oeste 15 Noroeste 0 1013 0.4 64
2019-05-29 12:00:00 15.1 5 Oeste 12 Noroeste 0 1012.8 0.7 69
2019-05-29 11:00:00 13.8 0 Calma 7 Noroeste 0 1012.7 1.3 85
2019-05-29 10:00:00 13 0 Calma 8 Noroeste 0 1012.6 1.6 89
2019-05-29 09:00:00 12.1 2 Sudoeste 6 Sudoeste 0 1012.1 1.6 95
2019-05-29 08:00:00 11.6 0 Calma 11 Este 0.1 1011.4 1.2 95
2019-05-29 07:00:00 11.2 0 Calma -- -- 0.3 1011 0.5 95
2019-05-29 06:00:00 11 0 Calma -- -- 0.9 1010.5 0 94
2019-05-29 05:00:00 11.1 0 Calma -- -- 0 1010.2 -0.4 93
2019-05-29 04:00:00 11.3 0 Calma 7 Sudoeste 0.1 1010.5 -0.1 91
2019-05-29 03:00:00 11.4 0 Calma 5 Norte 0 1010.5 0.2 89
2019-05-29 02:00:00 11.7 0 Calma 8 Sudoeste 0 1010.6 0.4 84
2019-05-29 01:00:00 12 0 Calma 8 Sudoeste 0 1010.6 0.9 81
2019-05-29 00:00:00 12.3 0 Calma 6 Oeste 0 1010.3 0.9 79
2019-05-28 23:00:00 12.8 3 Sudoeste 11 Oeste 0 1010.2 1 75
2019-05-28 22:00:00 13.1 0 Calma 12 Oeste 0 1009.7 1.1 72
2019-05-28 21:00:00 13.3 4 Noroeste 21 Noroeste 0 1009.4 1 72
2019-05-28 20:00:00 13.8 8 Noroeste 24 Norte 0 1009.2 1.1 69
2019-05-28 19:00:00 14.7 4 Oeste 28 Noroeste 0 1008.6 0.5 66
2019-05-28 18:00:00 15.3 8 Noroeste 19 Norte 0 1008.4 0.6 66
2019-05-28 17:00:00 14.3 7 Norte 24 Noroeste 0 1008.1 0.8 69
2019-05-28 16:00:00 14.3 6 Oeste 19 Sudoeste 0.1 1008.1 1 77
2019-05-28 15:00:00 13.6 5 Oeste 22 Oeste 1.1 1007.8 1.2 83
2019-05-28 14:00:00 14 4 Noroeste 19 Noroeste 0.5 1007.3 0.7 82
2019-05-28 13:00:00 13.5 4 Noroeste 23 Noroeste 0 1007.1 0.4 77
2019-05-28 12:00:00 14.6 2 Noroeste 17 Oeste 0.1 1006.6 0.4 77
2019-05-28 11:00:00 14 0 Calma 10 Oeste 0 1006.6 0.4 90
2019-05-28 10:00:00 11.3 4 Oeste 15 Oeste 0 1006.7 1 96
2019-05-28 09:00:00 10.2 0 Calma 9 Este 0 1006.2 0.7 96
2019-05-28 08:00:00 9.3 0 Calma -- -- 0 1006.2 0.9 96
2019-05-28 07:00:00 8.6 0 Calma -- -- 0 1005.7 0.2 96
2019-05-28 06:00:00 8.9 0 Calma -- -- 0 1005.5 0 96
2019-05-28 05:00:00 8.9 0 Calma -- -- 0 1005.3 -0.4 95
2019-05-28 04:00:00 9.3 0 Calma -- -- 0 1005.5 -0.2 94
2019-05-28 03:00:00 9.7 0 Calma 3 Sudoeste 0 1005.5 -0.3 93
2019-05-28 02:00:00 10.6 0 Calma 4 Sudoeste 0 1005.7 0.1 93
2019-05-28 01:00:00 11 0 Calma -- -- 0 1005.7 0.4 91
2019-05-28 00:00:00 11.7 0 Calma 6 Sudoeste 0 1005.8 0.9 90